Pagrindinis puslapis
METAR-TAF:

METAR-TAF

Oro uostai :

Luangprabangas, Laosas

platuma: 19-53N, ilguma: 102-08E, Aukštis: 305 m

Dabartinis oras

Ataskaita buvo paskelbta 8 valandos ir 51 minutes, ne 13:00 UTC
Vėjas 2 kt iš Pietų
Temperatūra 27°C
Drėgmė 84%
Slėgis 1005 hPa
Matomumas 10 km arba daugiau
Išsisklaidę debesys ne aukštis 1000 ft
Išsisklaidę debesys ne aukštis 6000 ft

METAR: VLLB 171300Z 18002KT 9999 SCT010 SCT060 27/24 Q1005 NOSIG

Laikas: 04:51 (21:51 UTC)

Prognozė

Ataskaita buvo paskelbta 4 valandos ir 51 minutes, ne 17:00 UTC
Prognozė galioja nuo 17 metu 18 UTC su 18 metu 18 UTC
Vėjas 4 kt iš Vakarų/Pietvakarių
Matomumas 10 km arba daugiau
Išsisklaidę debesys ne aukštis 1700 ft
Išsisklaidę debesys ne aukštis 6000 ft
Su prošvaistėmis ne aukštis 8000 ft
Laikinai
nuo 17 metu 18 UTC su 17 metu 22 UTC
Matomumas: 4000 m
Išsisklaidę debesys ne aukštis 1000 ft
Su prošvaistėmis ne aukštis 8000 ft
rūkana

TAF: VLLB 171700Z 1718/1818 24004KT 9999 SCT017 SCT060 BKN080 TEMPO 1718/1722 4000 BR SCT010 BKN080

Orai ataskaitas ir orų prognozės (METAR, TAF).

turimą stotys yra geltonos ir raudonos taškus žemėlapyje.

Perkelti pele per norėdami pamatyti stoties vardą.

Tada spustelėkite, norėdami matyti oro stebėjimo ir prognozės.

Norėdami pakeisti žemėlapį: spustelėkite ant žalios mygtukų su juodo kryžiaus žemyn,; žalią mygtuką su brūkšneliu, jei norite nutolinti; arba žalių rodyklių gretimoms žemėlapius.


METAR-TAF: